createdAt,value
2023-04-09T00:00:47.336Z,19.27
2023-04-09T00:01:48.935Z,19.42
2023-04-09T00:02:50.743Z,20.52
2023-04-09T00:03:52.376Z,22.27
2023-04-09T00:04:53.931Z,20.80
2023-04-09T00:05:56.126Z,20.08
2023-04-09T00:06:57.597Z,22.50
2023-04-09T00:07:59.159Z,21.30
2023-04-09T00:09:00.793Z,21.92
2023-04-09T00:10:02.332Z,23.67
2023-04-09T00:11:04.145Z,20.10
2023-04-09T00:12:05.803Z,22.17
2023-04-09T00:13:07.356Z,19.58
2023-04-09T00:14:08.888Z,22.88
2023-04-09T00:15:15.082Z,22.70
2023-04-09T00:16:22.426Z,21.52
2023-04-09T00:17:24.050Z,22.73
2023-04-09T00:18:25.663Z,20.92
2023-04-09T00:19:27.235Z,22.38
2023-04-09T00:20:28.838Z,21.05
2023-04-09T00:21:30.419Z,21.77
2023-04-09T00:22:31.949Z,21.98
2023-04-09T00:23:34.251Z,23.92
2023-04-09T00:24:35.853Z,26.63
2023-04-09T00:25:37.460Z,25.23
2023-04-09T00:26:38.974Z,26.45
2023-04-09T00:27:40.632Z,34.17
2023-04-09T00:28:42.308Z,29.25
2023-04-09T00:29:43.853Z,28.90
2023-04-09T00:30:45.473Z,27.05
2023-04-09T00:31:47.009Z,26.50
2023-04-09T00:32:48.886Z,24.60
2023-04-09T00:33:50.605Z,22.55
2023-04-09T00:34:52.141Z,18.83
2023-04-09T00:35:53.966Z,21.40
2023-04-09T00:36:55.756Z,19.88
2023-04-09T00:37:57.363Z,21.48
2023-04-09T00:38:59.034Z,20.40
2023-04-09T00:40:00.932Z,21.85
2023-04-09T00:41:02.525Z,20.95
2023-04-09T00:42:04.244Z,20.13
2023-04-09T00:43:05.803Z,23.55
2023-04-09T00:44:07.410Z,26.25
2023-04-09T00:45:09.351Z,24.17
2023-04-09T00:46:11.298Z,22.00
2023-04-09T00:47:13.054Z,23.15
2023-04-09T00:48:15.399Z,23.08
2023-04-09T00:49:17.003Z,21.48
2023-04-09T00:50:19.638Z,22.38
2023-04-09T00:52:23.465Z,23.50
2023-04-09T00:53:25.543Z,23.83
2023-04-09T00:54:27.617Z,23.00
2023-04-09T00:55:29.246Z,22.73
2023-04-09T00:56:30.956Z,22.20
2023-04-09T00:57:32.608Z,21.02
2023-04-09T00:58:34.165Z,24.48
2023-04-09T00:59:35.944Z,23.25
2023-04-09T01:00:37.831Z,26.67
2023-04-09T01:01:39.457Z,23.35
2023-04-09T01:02:41.542Z,28.70
2023-04-09T01:03:43.417Z,25.42
2023-04-09T01:04:45.406Z,22.45
2023-04-09T01:05:54.756Z,22.73
2023-04-09T01:07:05.032Z,23.05
2023-04-09T01:08:15.209Z,24.48
2023-04-09T01:09:37.814Z,22.50
2023-04-09T01:11:24.589Z,23.98
2023-04-09T01:12:36.799Z,22.73
2023-04-09T01:14:03.869Z,21.17
2023-04-09T01:15:08.856Z,23.50
2023-04-09T01:16:13.010Z,26.30
2023-04-09T01:17:51.208Z,23.02
2023-04-09T01:18:58.278Z,26.05
2023-04-09T01:20:19.224Z,24.08
2023-04-09T01:21:23.485Z,23.88
2023-04-09T01:22:50.273Z,21.58
2023-04-09T01:24:14.099Z,21.48
2023-04-09T01:25:38.081Z,24.13
2023-04-09T01:26:59.875Z,27.58
2023-04-09T01:28:45.780Z,24.38
2023-04-09T01:29:51.089Z,20.77
2023-04-09T01:30:57.683Z,22.10
2023-04-09T01:32:01.040Z,21.73
2023-04-09T01:33:03.635Z,23.92
2023-04-09T01:35:08.986Z,25.58
2023-04-09T01:36:11.006Z,24.23
2023-04-09T01:37:13.697Z,22.17
2023-04-09T01:39:17.386Z,19.95
2023-04-09T01:40:19.118Z,22.35
2023-04-09T01:41:21.843Z,22.58
2023-04-09T01:43:27.699Z,24.00
2023-04-09T01:44:29.617Z,20.30
2023-04-09T01:45:31.801Z,23.05
2023-04-09T01:46:33.686Z,21.42
2023-04-09T01:47:35.548Z,21.38
2023-04-09T01:48:37.477Z,22.48
2023-04-09T01:49:40.734Z,25.48
2023-04-09T01:50:42.385Z,22.02
2023-04-09T01:51:44.391Z,25.63
2023-04-09T01:52:46.018Z,22.48
2023-04-09T01:53:49.144Z,23.38
2023-04-09T01:54:50.723Z,23.58
2023-04-09T01:55:52.368Z,25.90
2023-04-09T01:56:53.871Z,22.80
2023-04-09T01:57:55.659Z,23.02
2023-04-09T01:58:57.248Z,22.23
2023-04-09T01:59:59.105Z,20.70
2023-04-09T02:01:04.138Z,21.60
2023-04-09T02:02:12.637Z,22.85
2023-04-09T02:03:18.736Z,22.05
2023-04-09T02:04:24.868Z,20.42
2023-04-09T02:05:29.317Z,23.33
2023-04-09T02:06:40.588Z,20.92
2023-04-09T02:07:45.093Z,21.95
2023-04-09T02:08:47.469Z,21.92
2023-04-09T02:09:49.567Z,21.65
2023-04-09T02:10:55.523Z,23.52
2023-04-09T02:11:59.650Z,21.95
2023-04-09T02:13:01.639Z,23.58
2023-04-09T02:14:04.353Z,20.92
2023-04-09T02:15:07.253Z,21.67
2023-04-09T02:16:11.390Z,20.17
2023-04-09T02:17:13.149Z,23.95
2023-04-09T02:18:28.590Z,20.92
2023-04-09T02:19:41.855Z,22.50
2023-04-09T02:20:43.463Z,21.52
2023-04-09T02:21:45.869Z,23.00
2023-04-09T02:22:47.540Z,22.23
2023-04-09T02:23:49.327Z,25.55
2023-04-09T02:24:50.951Z,21.10
2023-04-09T02:25:53.413Z,20.33
2023-04-09T02:26:55.059Z,23.67
2023-04-09T02:27:56.595Z,22.30
2023-04-09T02:28:58.076Z,21.50
2023-04-09T02:29:59.582Z,24.60
2023-04-09T02:31:01.151Z,20.25
2023-04-09T02:32:02.716Z,21.15
2023-04-09T02:33:04.360Z,21.60
2023-04-09T02:34:05.934Z,22.77
2023-04-09T02:35:07.850Z,25.13
2023-04-09T02:36:13.371Z,21.23
2023-04-09T02:37:15.415Z,23.10
2023-04-09T02:38:17.018Z,20.90
2023-04-09T02:39:18.865Z,20.55
2023-04-09T02:40:20.487Z,26.40
2023-04-09T02:41:22.104Z,24.50
2023-04-09T02:42:23.717Z,23.40
2023-04-09T02:43:25.397Z,21.90
2023-04-09T02:44:26.985Z,22.17
2023-04-09T02:45:28.877Z,22.40
2023-04-09T02:46:30.737Z,23.90
2023-04-09T02:47:32.300Z,20.63
2023-04-09T02:48:34.123Z,21.70
2023-04-09T02:49:35.729Z,24.02
2023-04-09T02:50:37.569Z,23.05
2023-04-09T02:51:39.169Z,22.50
2023-04-09T02:52:40.807Z,21.38
2023-04-09T02:53:42.498Z,20.52
2023-04-09T02:54:44.037Z,23.55
2023-04-09T02:55:45.724Z,23.58
2023-04-09T02:56:47.282Z,23.45
2023-04-09T02:57:49.005Z,23.90
2023-04-09T02:58:53.952Z,23.52
2023-04-09T02:59:55.882Z,21.63
2023-04-09T03:00:57.497Z,24.05
2023-04-09T03:01:59.205Z,20.90
2023-04-09T03:03:01.121Z,24.35
2023-04-09T03:04:03.154Z,21.83
2023-04-09T03:05:05.436Z,23.05
2023-04-09T03:06:06.942Z,21.85
2023-04-09T03:07:08.670Z,23.55
2023-04-09T03:08:10.239Z,24.88
2023-04-09T03:09:11.764Z,23.50
2023-04-09T03:10:13.567Z,24.70
2023-04-09T03:11:15.835Z,25.40
2023-04-09T03:12:17.425Z,26.75
2023-04-09T03:13:19.041Z,22.67
2023-04-09T03:14:20.593Z,26.08
2023-04-09T03:15:22.139Z,27.60
2023-04-09T03:16:25.283Z,26.65
2023-04-09T03:17:27.339Z,27.90
2023-04-09T03:18:28.897Z,28.15
2023-04-09T03:19:31.353Z,28.92
2023-04-09T03:20:32.991Z,27.33
2023-04-09T03:21:34.596Z,27.23
2023-04-09T03:22:37.724Z,29.00
2023-04-09T03:23:42.784Z,29.52
2023-04-09T03:24:44.310Z,30.73
2023-04-09T03:25:45.926Z,31.00
2023-04-09T03:26:50.562Z,28.70
2023-04-09T03:27:52.599Z,32.60
2023-04-09T03:29:03.346Z,27.05
2023-04-09T03:30:05.494Z,26.35
2023-04-09T03:31:14.138Z,23.45
2023-04-09T03:32:18.967Z,29.35
2023-04-09T03:33:20.833Z,24.90
2023-04-09T03:34:26.414Z,27.95
2023-04-09T03:35:30.953Z,27.92
2023-04-09T03:36:34.629Z,23.92
2023-04-09T03:37:44.897Z,31.63
2023-04-09T03:38:51.899Z,25.90
2023-04-09T03:40:02.142Z,27.42
2023-04-09T03:41:05.688Z,29.52
2023-04-09T03:42:08.702Z,29.65
2023-04-09T03:43:20.657Z,29.67
2023-04-09T03:44:26.177Z,30.73
2023-04-09T03:45:49.936Z,31.98
2023-04-09T03:46:56.995Z,32.47
2023-04-09T03:47:59.359Z,31.63
2023-04-09T03:49:01.030Z,32.97
2023-04-09T03:50:11.375Z,32.08
2023-04-09T03:51:27.188Z,28.63
2023-04-09T03:52:32.264Z,27.80
2023-04-09T03:53:41.813Z,28.65
2023-04-09T03:54:43.565Z,31.67
2023-04-09T03:55:50.637Z,27.92
2023-04-09T03:56:58.048Z,30.25
2023-04-09T03:58:00.234Z,34.25
2023-04-09T03:59:06.565Z,33.13
2023-04-09T04:00:13.382Z,36.25
2023-04-09T04:01:46.981Z,35.40
2023-04-09T04:02:49.365Z,33.58
2023-04-09T04:03:53.783Z,29.83
2023-04-09T04:05:00.734Z,29.30
2023-04-09T04:06:06.836Z,33.28
2023-04-09T04:07:32.736Z,27.08
2023-04-09T04:08:40.924Z,30.73
2023-04-09T04:09:42.666Z,30.88
2023-04-09T04:10:47.503Z,27.70
2023-04-09T04:11:52.889Z,29.05
2023-04-09T04:12:56.930Z,30.02
2023-04-09T04:14:09.160Z,28.88
2023-04-09T04:15:11.153Z,30.20
2023-04-09T04:16:18.978Z,27.30
2023-04-09T04:17:20.680Z,26.40
2023-04-09T04:18:22.941Z,26.65
2023-04-09T04:19:26.974Z,28.38
2023-04-09T04:20:29.695Z,27.52
2023-04-09T04:21:39.713Z,29.38
2023-04-09T04:22:41.674Z,28.90
2023-04-09T04:23:43.322Z,28.58
2023-04-09T04:24:52.960Z,29.63
2023-04-09T04:25:58.062Z,30.00
2023-04-09T04:27:09.792Z,28.90
2023-04-09T04:28:11.445Z,28.98
2023-04-09T04:29:16.375Z,30.55
2023-04-09T04:30:28.638Z,30.45
2023-04-09T04:31:35.496Z,28.30
2023-04-09T04:32:37.290Z,32.03
2023-04-09T04:33:43.405Z,35.08
2023-04-09T04:34:50.127Z,36.60
2023-04-09T04:36:08.772Z,28.25
2023-04-09T04:37:14.409Z,32.88
2023-04-09T04:38:16.203Z,30.35
2023-04-09T04:39:17.860Z,26.38
2023-04-09T04:40:33.409Z,28.95
2023-04-09T04:41:36.515Z,35.67
2023-04-09T04:42:51.953Z,26.85
2023-04-09T04:43:53.780Z,28.17
2023-04-09T04:44:57.852Z,28.25
2023-04-09T04:46:11.397Z,31.02
2023-04-09T04:47:13.832Z,29.05
2023-04-09T04:48:15.492Z,31.40
2023-04-09T04:49:17.100Z,32.42
2023-04-09T04:50:22.077Z,32.42
2023-04-09T04:51:36.871Z,30.38
2023-04-09T04:52:44.460Z,35.95
2023-04-09T04:53:46.343Z,33.17
2023-04-09T04:54:48.986Z,29.50
2023-04-09T04:55:55.544Z,27.00
2023-04-09T04:57:01.484Z,26.80
2023-04-09T04:58:12.922Z,26.95
2023-04-09T04:59:22.060Z,26.88
2023-04-09T05:00:32.692Z,31.15
2023-04-09T05:01:37.109Z,28.63
2023-04-09T05:02:43.143Z,31.25
2023-04-09T05:03:53.578Z,30.98
2023-04-09T05:05:09.028Z,33.72
2023-04-09T05:06:16.330Z,33.15
2023-04-09T05:07:20.024Z,30.98
2023-04-09T05:08:28.172Z,32.75
2023-04-09T05:09:31.347Z,31.65
2023-04-09T05:10:46.852Z,29.65
2023-04-09T05:11:48.602Z,30.38
2023-04-09T05:12:54.028Z,34.35
2023-04-09T05:14:03.621Z,31.55
2023-04-09T05:15:05.867Z,32.20
2023-04-09T05:16:07.673Z,30.58
2023-04-09T05:17:11.141Z,33.97
2023-04-09T05:18:18.527Z,34.55
2023-04-09T05:19:20.086Z,31.52
2023-04-09T05:20:21.974Z,30.60
2023-04-09T05:21:37.269Z,34.05
2023-04-09T05:22:39.374Z,32.78
2023-04-09T05:23:42.685Z,30.00
2023-04-09T05:24:44.250Z,32.20
2023-04-09T05:25:46.092Z,34.30
2023-04-09T05:26:58.871Z,31.15
2023-04-09T05:28:00.884Z,31.48
2023-04-09T05:29:03.072Z,33.13
2023-04-09T05:30:04.967Z,30.00
2023-04-09T05:31:12.812Z,34.95
2023-04-09T05:32:20.190Z,31.50
2023-04-09T05:33:21.816Z,36.75
2023-04-09T05:34:23.574Z,36.95
2023-04-09T05:35:27.859Z,36.70
2023-04-09T05:36:29.403Z,32.35
2023-04-09T05:37:31.249Z,32.20
2023-04-09T05:38:33.045Z,35.22
2023-04-09T05:39:34.649Z,36.20
2023-04-09T05:40:36.940Z,38.83
2023-04-09T05:41:41.943Z,35.47
2023-04-09T05:43:02.967Z,37.22
2023-04-09T05:44:13.099Z,40.08
2023-04-09T05:45:14.998Z,38.03
2023-04-09T05:46:23.106Z,42.30
2023-04-09T05:47:25.493Z,42.72
2023-04-09T05:48:39.934Z,40.42
2023-04-09T05:49:41.524Z,38.92
2023-04-09T05:50:55.100Z,40.40
2023-04-09T05:51:59.914Z,36.40
2023-04-09T05:53:03.983Z,39.38
2023-04-09T05:55:14.270Z,34.90
2023-04-09T05:56:23.394Z,36.75
2023-04-09T05:57:30.398Z,32.65
2023-04-09T05:58:35.018Z,34.47
2023-04-09T05:59:36.595Z,32.88
2023-04-09T06:00:38.220Z,33.33
2023-04-09T06:01:39.793Z,35.72
2023-04-09T06:02:41.514Z,31.27
2023-04-09T06:03:43.661Z,33.67
2023-04-09T06:04:45.570Z,30.83
2023-04-09T06:05:49.856Z,28.60
2023-04-09T06:06:51.785Z,26.83
2023-04-09T06:07:53.360Z,27.50
2023-04-09T06:08:55.393Z,28.02
2023-04-09T06:09:57.021Z,25.30
2023-04-09T06:10:58.838Z,26.30
2023-04-09T06:12:00.802Z,25.55
2023-04-09T06:13:02.365Z,22.27
2023-04-09T06:14:04.628Z,26.70
2023-04-09T06:15:06.657Z,27.55
2023-04-09T06:16:08.969Z,27.77
2023-04-09T06:17:10.587Z,24.40
2023-04-09T06:18:12.272Z,25.65
2023-04-09T06:19:16.315Z,27.88
2023-04-09T06:20:17.971Z,24.40
2023-04-09T06:21:19.515Z,23.55
2023-04-09T06:22:21.101Z,24.13
2023-04-09T06:23:22.639Z,27.35
2023-04-09T06:24:24.278Z,28.40
2023-04-09T06:25:26.081Z,23.55
2023-04-09T06:26:27.662Z,21.33
2023-04-09T06:27:29.256Z,22.35
2023-04-09T06:28:31.543Z,22.73
2023-04-09T06:29:33.211Z,21.48
2023-04-09T06:30:36.824Z,22.42
2023-04-09T06:31:38.723Z,21.38
2023-04-09T06:32:50.972Z,23.35
2023-04-09T06:33:56.191Z,23.27
2023-04-09T06:34:58.159Z,22.73
2023-04-09T06:35:59.817Z,23.10
2023-04-09T06:37:01.449Z,22.25
2023-04-09T06:38:03.042Z,22.38
2023-04-09T06:39:04.695Z,21.10
2023-04-09T06:40:08.823Z,19.58
2023-04-09T06:41:12.708Z,19.77
2023-04-09T06:42:14.354Z,21.85
2023-04-09T06:43:25.940Z,19.15
2023-04-09T06:44:27.742Z,19.00
2023-04-09T06:45:29.482Z,20.05
2023-04-09T06:46:31.362Z,18.23
2023-04-09T06:47:32.944Z,20.20
2023-04-09T06:48:34.781Z,18.40
2023-04-09T06:49:36.718Z,18.63
2023-04-09T06:50:38.356Z,19.65
2023-04-09T06:51:39.891Z,18.08
2023-04-09T06:52:41.939Z,18.17
2023-04-09T06:53:43.624Z,19.65
2023-04-09T06:54:46.075Z,20.38
2023-04-09T06:56:49.081Z,20.05
2023-04-09T06:57:50.865Z,19.05
2023-04-09T06:58:52.486Z,19.67
2023-04-09T06:59:53.984Z,20.45
2023-04-09T07:00:55.819Z,19.45
2023-04-09T07:01:57.436Z,20.65
2023-04-09T07:02:59.213Z,21.15
2023-04-09T07:04:01.514Z,16.90
2023-04-09T07:05:04.207Z,17.70
2023-04-09T07:06:06.241Z,17.73
2023-04-09T07:07:07.796Z,19.17
2023-04-09T07:08:09.494Z,16.98
2023-04-09T07:09:11.055Z,19.50
2023-04-09T07:10:12.640Z,18.90
2023-04-09T07:11:16.957Z,19.80
2023-04-09T07:12:32.159Z,19.63
2023-04-09T07:13:33.737Z,19.65
2023-04-09T07:14:35.426Z,20.00
2023-04-09T07:15:36.979Z,19.10
2023-04-09T07:16:38.566Z,17.80
2023-04-09T07:17:40.262Z,19.13
2023-04-09T07:18:41.796Z,19.25
2023-04-09T07:19:43.388Z,18.27
2023-04-09T07:20:44.932Z,19.88
2023-04-09T07:21:46.431Z,17.27
2023-04-09T07:22:48.034Z,16.55
2023-04-09T07:23:49.551Z,17.75
2023-04-09T07:24:54.860Z,14.55
2023-04-09T07:25:56.722Z,14.27
2023-04-09T07:26:58.409Z,16.42
2023-04-09T07:28:00.060Z,16.10
2023-04-09T07:29:03.668Z,15.90
2023-04-09T07:30:05.857Z,15.35
2023-04-09T07:31:07.815Z,13.80
2023-04-09T07:32:09.526Z,12.85
2023-04-09T07:33:11.239Z,13.23
2023-04-09T07:34:12.828Z,12.95
2023-04-09T07:35:14.366Z,12.32
2023-04-09T07:36:16.093Z,13.35
2023-04-09T07:37:17.715Z,14.05
2023-04-09T07:38:19.301Z,14.55
2023-04-09T07:39:21.071Z,13.82
2023-04-09T07:40:22.710Z,14.45
2023-04-09T07:41:24.187Z,15.18
2023-04-09T07:42:25.819Z,16.05
2023-04-09T07:43:27.493Z,16.70
2023-04-09T07:44:29.244Z,17.48
2023-04-09T07:45:30.879Z,17.08
2023-04-09T07:46:32.424Z,16.52
2023-04-09T07:47:34.164Z,16.67
2023-04-09T07:48:35.924Z,14.85
2023-04-09T07:49:38.085Z,15.63
2023-04-09T07:50:39.681Z,17.60
2023-04-09T07:51:41.364Z,17.65
2023-04-09T07:52:43.008Z,14.82
2023-04-09T07:53:44.553Z,15.27
2023-04-09T07:54:46.108Z,14.68
2023-04-09T07:55:47.722Z,16.77
2023-04-09T07:56:49.428Z,16.08
2023-04-09T07:57:51.670Z,16.25
2023-04-09T07:58:53.596Z,17.77
2023-04-09T07:59:55.512Z,16.58
2023-04-09T08:00:57.142Z,15.43
2023-04-09T08:01:59.351Z,15.57
2023-04-09T08:03:02.126Z,15.93
2023-04-09T08:04:04.248Z,14.70
2023-04-09T08:05:06.564Z,14.07
2023-04-09T08:06:08.346Z,14.35
2023-04-09T08:07:09.918Z,14.07
2023-04-09T08:08:11.457Z,14.98
2023-04-09T08:09:13.009Z,14.75
2023-04-09T08:10:15.203Z,15.85
2023-04-09T08:11:18.417Z,13.77
2023-04-09T08:12:20.013Z,14.50
2023-04-09T08:13:24.136Z,13.35
2023-04-09T08:14:25.644Z,12.13
2023-04-09T08:15:27.400Z,13.77
2023-04-09T08:16:30.232Z,14.52
2023-04-09T08:17:31.934Z,13.45
2023-04-09T08:18:33.580Z,12.70
2023-04-09T08:19:35.901Z,11.63
2023-04-09T08:21:42.984Z,12.32
2023-04-09T08:22:45.285Z,11.40
2023-04-09T08:24:52.029Z,12.40
2023-04-09T08:25:53.565Z,12.00
2023-04-09T08:26:56.635Z,9.93
2023-04-09T08:27:58.172Z,11.25
2023-04-09T08:28:59.722Z,10.95
2023-04-09T08:30:02.416Z,11.82
2023-04-09T08:31:04.048Z,11.65
2023-04-09T08:32:06.094Z,11.50
2023-04-09T08:33:07.790Z,11.18
2023-04-09T08:34:09.573Z,11.65
2023-04-09T08:35:11.130Z,10.85
2023-04-09T08:36:12.814Z,10.98
2023-04-09T08:37:14.328Z,10.35
2023-04-09T08:38:16.311Z,10.30
2023-04-09T08:39:20.807Z,10.32
2023-04-09T08:40:22.788Z,11.00
2023-04-09T08:41:25.529Z,10.73
2023-04-09T08:42:27.618Z,9.70
2023-04-09T08:43:52.564Z,11.15
2023-04-09T08:44:51.890Z,9.10
2023-04-09T08:45:57.694Z,9.73
2023-04-09T08:47:00.010Z,9.75
2023-04-09T08:49:05.572Z,9.60
2023-04-09T08:50:07.522Z,9.95
2023-04-09T08:51:09.196Z,9.82
2023-04-09T08:52:10.818Z,9.10
2023-04-09T08:53:12.431Z,9.50
2023-04-09T08:54:19.887Z,10.32
2023-04-09T08:55:22.416Z,9.25
2023-04-09T08:57:25.486Z,9.30
2023-04-09T08:58:27.795Z,10.23
2023-04-09T08:59:29.538Z,8.88
2023-04-09T09:00:31.323Z,8.95
2023-04-09T09:01:33.327Z,10.38
2023-04-09T09:02:35.635Z,8.93
2023-04-09T09:04:50.782Z,9.10
2023-04-09T09:05:52.287Z,9.68
2023-04-09T09:06:55.450Z,11.40
2023-04-09T09:07:58.729Z,9.20
2023-04-09T09:09:04.768Z,9.43
2023-04-09T09:10:07.137Z,8.73
2023-04-09T09:12:10.092Z,8.70
2023-04-09T09:13:17.413Z,9.68
2023-04-09T09:14:19.790Z,8.25
2023-04-09T09:15:28.419Z,8.85
2023-04-09T09:16:31.277Z,9.07
2023-04-09T09:17:34.395Z,8.73
2023-04-09T09:18:42.070Z,9.40
2023-04-09T09:19:43.625Z,8.95
2023-04-09T09:20:45.447Z,9.20
2023-04-09T09:21:56.604Z,9.32
2023-04-09T09:22:58.280Z,9.57
2023-04-09T09:23:59.824Z,10.38
2023-04-09T09:25:01.605Z,9.48
2023-04-09T09:26:21.676Z,10.27
2023-04-09T09:27:39.257Z,9.75
2023-04-09T09:28:41.364Z,9.05
2023-04-09T09:29:44.908Z,9.15
2023-04-09T09:30:47.920Z,9.98
2023-04-09T09:31:55.595Z,9.88
2023-04-09T09:33:08.658Z,9.77
2023-04-09T09:34:10.485Z,9.93
2023-04-09T09:35:12.170Z,9.05
2023-04-09T09:36:15.973Z,8.88
2023-04-09T09:37:28.056Z,9.25
2023-04-09T09:38:32.334Z,9.40
2023-04-09T09:39:51.670Z,9.43
2023-04-09T09:40:53.319Z,9.48
2023-04-09T09:42:07.593Z,9.82
2023-04-09T09:43:09.312Z,9.35
2023-04-09T09:44:12.181Z,10.02
2023-04-09T09:45:20.403Z,10.00
2023-04-09T09:46:22.386Z,9.68
2023-04-09T09:47:25.290Z,8.50
2023-04-09T09:48:28.409Z,10.32
2023-04-09T09:49:30.325Z,9.63
2023-04-09T09:50:34.443Z,9.27
2023-04-09T09:51:37.473Z,8.18
2023-04-09T09:52:39.373Z,9.20
2023-04-09T09:53:46.566Z,9.27
2023-04-09T09:55:53.881Z,8.85
2023-04-09T09:56:58.221Z,9.90
2023-04-09T09:58:03.793Z,9.50
2023-04-09T09:59:17.475Z,9.38
2023-04-09T10:00:23.807Z,9.77
2023-04-09T10:01:27.225Z,10.07
2023-04-09T10:02:32.920Z,9.77
2023-04-09T10:03:35.611Z,8.38
2023-04-09T10:04:38.004Z,8.73
2023-04-09T10:05:40.806Z,9.23
2023-04-09T10:06:43.953Z,8.32
2023-04-09T10:07:46.512Z,9.40
2023-04-09T10:08:49.285Z,8.93
2023-04-09T10:09:52.167Z,10.93
2023-04-09T10:10:53.937Z,9.25
2023-04-09T10:11:56.538Z,9.50
2023-04-09T10:12:59.063Z,9.88
2023-04-09T10:14:00.794Z,8.90
2023-04-09T10:15:05.016Z,9.65
2023-04-09T10:16:07.481Z,9.48
2023-04-09T10:18:10.691Z,10.48
2023-04-09T10:19:15.328Z,10.20
2023-04-09T10:20:23.058Z,10.20
2023-04-09T10:21:38.811Z,9.15
2023-04-09T10:22:43.335Z,10.05
2023-04-09T10:23:46.008Z,10.35
2023-04-09T10:24:47.707Z,9.57
2023-04-09T10:25:49.355Z,10.60
2023-04-09T10:26:54.528Z,8.40
2023-04-09T10:28:00.370Z,10.15
2023-04-09T10:29:27.836Z,9.80
2023-04-09T10:30:36.545Z,9.20
2023-04-09T10:31:50.447Z,11.25
2023-04-09T10:32:53.260Z,9.88
2023-04-09T10:34:03.988Z,9.63
2023-04-09T10:35:06.920Z,8.50
2023-04-09T10:36:12.873Z,8.52
2023-04-09T10:37:17.013Z,10.48
2023-04-09T10:38:40.788Z,9.18
2023-04-09T10:39:47.247Z,10.40
2023-04-09T10:40:50.082Z,9.18
2023-04-09T10:41:52.943Z,10.13
2023-04-09T10:42:56.055Z,10.85
2023-04-09T10:43:57.739Z,10.00
2023-04-09T10:45:06.270Z,10.45
2023-04-09T10:46:25.897Z,10.35
2023-04-09T10:47:33.910Z,10.95
2023-04-09T10:48:35.740Z,10.93
2023-04-09T10:49:39.212Z,10.20
2023-04-09T10:50:43.701Z,9.13
2023-04-09T10:52:16.197Z,10.50
2023-04-09T10:53:25.408Z,10.48
2023-04-09T10:54:47.625Z,9.70
2023-04-09T10:55:53.399Z,9.18
2023-04-09T10:57:18.990Z,11.23
2023-04-09T10:58:20.618Z,10.13
2023-04-09T10:59:22.194Z,11.25
2023-04-09T11:00:23.728Z,10.13
2023-04-09T11:01:26.510Z,10.00
2023-04-09T11:02:40.244Z,9.88
2023-04-09T11:03:44.999Z,10.43
2023-04-09T11:05:07.330Z,10.02
2023-04-09T11:06:10.459Z,10.07
2023-04-09T11:07:13.246Z,9.35
2023-04-09T11:08:17.045Z,9.85
2023-04-09T11:09:18.598Z,10.60
2023-04-09T11:10:21.671Z,9.73
2023-04-09T11:11:26.804Z,10.02
2023-04-09T11:12:28.361Z,10.27
2023-04-09T11:13:31.561Z,10.73
2023-04-09T11:14:36.470Z,11.85
2023-04-09T11:15:39.116Z,12.10
2023-04-09T11:16:40.778Z,10.15
2023-04-09T11:17:43.135Z,11.63
2023-04-09T11:19:46.673Z,11.30
2023-04-09T11:20:48.514Z,9.73
2023-04-09T11:21:50.185Z,10.32
2023-04-09T11:22:53.498Z,8.82
2023-04-09T11:23:55.181Z,9.35
2023-04-09T11:24:56.739Z,10.68
2023-04-09T11:25:58.501Z,10.93
2023-04-09T11:27:02.059Z,9.88
2023-04-09T11:28:05.049Z,12.05
2023-04-09T11:29:09.758Z,9.23
2023-04-09T11:30:11.648Z,12.23
2023-04-09T11:31:13.183Z,10.60
2023-04-09T11:32:14.860Z,11.00
2023-04-09T11:33:19.138Z,10.43
2023-04-09T11:34:21.471Z,10.02
2023-04-09T11:35:23.739Z,8.90
2023-04-09T11:36:27.066Z,8.93
2023-04-09T11:37:28.633Z,10.20
2023-04-09T11:38:31.362Z,9.20
2023-04-09T11:39:36.628Z,9.25
2023-04-09T11:40:51.517Z,10.30
2023-04-09T11:41:53.364Z,9.20
2023-04-09T11:42:56.236Z,10.07
2023-04-09T11:43:57.746Z,9.23
2023-04-09T11:44:59.597Z,10.05
2023-04-09T11:46:01.716Z,10.75
2023-04-09T11:47:03.457Z,10.13
2023-04-09T11:48:05.655Z,9.40
2023-04-09T11:49:07.642Z,10.60
2023-04-09T11:50:10.066Z,9.13
2023-04-09T11:52:16.397Z,9.77
2023-04-09T11:53:18.834Z,9.15
2023-04-09T11:55:29.371Z,10.65
2023-04-09T11:56:31.387Z,9.50
2023-04-09T11:57:46.774Z,9.25
2023-04-09T11:58:48.801Z,10.85
2023-04-09T11:59:50.353Z,11.00
2023-04-09T12:00:59.000Z,10.02
2023-04-09T12:02:00.674Z,11.00
2023-04-09T12:03:03.871Z,8.82
2023-04-09T12:04:06.951Z,8.63
2023-04-09T12:05:14.157Z,9.40
2023-04-09T12:06:20.643Z,10.15
2023-04-09T12:07:22.229Z,8.02
2023-04-09T12:08:24.987Z,9.25
2023-04-09T12:09:26.793Z,10.98
2023-04-09T12:10:29.717Z,12.02
2023-04-09T12:11:32.544Z,9.90
2023-04-09T12:12:41.395Z,9.98
2023-04-09T12:13:44.463Z,10.70
2023-04-09T12:14:47.461Z,11.57
2023-04-09T12:15:49.871Z,8.70
2023-04-09T12:16:52.523Z,8.95
2023-04-09T12:17:55.247Z,10.48
2023-04-09T12:18:56.814Z,9.55
2023-04-09T12:19:58.285Z,8.00
2023-04-09T12:21:01.340Z,9.65
2023-04-09T12:22:03.179Z,9.43
2023-04-09T12:23:05.853Z,9.85
2023-04-09T12:24:07.392Z,9.27
2023-04-09T12:25:09.287Z,10.15
2023-04-09T12:26:10.862Z,10.73
2023-04-09T12:27:12.472Z,12.13
2023-04-09T12:28:16.638Z,10.75
2023-04-09T12:29:20.609Z,10.32
2023-04-09T12:30:22.910Z,11.20
2023-04-09T12:31:24.489Z,9.60
2023-04-09T12:32:26.083Z,10.60
2023-04-09T12:33:27.725Z,11.18
2023-04-09T12:34:29.240Z,10.45
2023-04-09T12:35:31.042Z,11.07
2023-04-09T12:36:32.713Z,11.32
2023-04-09T12:37:34.254Z,10.73
2023-04-09T12:38:35.832Z,11.15
2023-04-09T12:39:37.379Z,12.57
2023-04-09T12:40:39.313Z,9.57
2023-04-09T12:41:40.844Z,10.55
2023-04-09T12:42:43.414Z,11.38
2023-04-09T12:43:45.057Z,12.23
2023-04-09T12:44:46.555Z,10.82
2023-04-09T12:45:48.058Z,11.18
2023-04-09T12:46:49.629Z,10.43
2023-04-09T12:47:51.215Z,10.50
2023-04-09T12:48:52.802Z,14.43
2023-04-09T12:49:54.717Z,11.55
2023-04-09T12:50:56.458Z,9.65
2023-04-09T12:51:57.984Z,9.80
2023-04-09T12:52:59.552Z,9.40
2023-04-09T12:54:03.919Z,8.68
2023-04-09T12:55:06.632Z,11.40
2023-04-09T12:56:08.596Z,8.55
2023-04-09T12:57:10.266Z,10.00
2023-04-09T12:58:12.024Z,8.27
2023-04-09T12:59:13.613Z,11.90
2023-04-09T13:00:16.623Z,11.10
2023-04-09T13:01:18.354Z,10.40
2023-04-09T13:02:21.473Z,9.30
2023-04-09T13:03:27.317Z,9.18
2023-04-09T13:04:29.289Z,8.38
2023-04-09T13:05:35.347Z,7.85
2023-04-09T13:06:36.936Z,8.00
2023-04-09T13:07:39.361Z,7.70
2023-04-09T13:08:42.369Z,7.78
2023-04-09T13:09:45.239Z,7.55
2023-04-09T13:10:47.008Z,8.38
2023-04-09T13:11:48.595Z,9.77
2023-04-09T13:12:51.384Z,8.25
2023-04-09T13:13:53.711Z,8.57
2023-04-09T13:14:55.636Z,8.63
2023-04-09T13:15:57.348Z,7.53
2023-04-09T13:16:59.080Z,8.00
2023-04-09T13:18:00.854Z,6.93
2023-04-09T13:19:02.380Z,7.25
2023-04-09T13:20:04.343Z,7.90
2023-04-09T13:21:06.484Z,9.20
2023-04-09T13:22:08.847Z,8.70
2023-04-09T13:23:10.503Z,9.10
2023-04-09T13:24:12.090Z,9.68
2023-04-09T13:25:15.024Z,9.20
2023-04-09T13:26:17.019Z,9.90
2023-04-09T13:27:18.798Z,11.77
2023-04-09T13:28:20.641Z,9.43
2023-04-09T13:29:23.031Z,8.82
2023-04-09T13:31:26.260Z,8.60
2023-04-09T13:32:27.925Z,8.55
2023-04-09T13:33:29.530Z,8.50
2023-04-09T13:34:31.120Z,9.10
2023-04-09T13:35:32.802Z,10.75
2023-04-09T13:36:34.562Z,10.68
2023-04-09T13:37:36.192Z,9.88
2023-04-09T13:38:37.976Z,9.43
2023-04-09T13:39:39.529Z,11.05
2023-04-09T13:40:41.102Z,10.40
2023-04-09T13:41:42.692Z,11.32
2023-04-09T13:42:44.677Z,9.60
2023-04-09T13:43:46.443Z,10.10
2023-04-09T13:44:48.004Z,10.35
2023-04-09T13:45:49.815Z,10.27
2023-04-09T13:46:51.425Z,11.88
2023-04-09T13:47:53.836Z,11.82
2023-04-09T13:49:56.907Z,11.05
2023-04-09T13:50:58.463Z,8.30
2023-04-09T13:52:00.218Z,9.45
2023-04-09T13:53:05.136Z,9.57
2023-04-09T13:54:08.526Z,10.40
2023-04-09T13:55:10.425Z,9.38
2023-04-09T13:56:11.949Z,10.43
2023-04-09T13:57:15.326Z,9.70
2023-04-09T13:58:17.264Z,10.43
2023-04-09T13:59:19.448Z,10.93
2023-04-09T14:00:21.351Z,9.65
2023-04-09T14:01:24.162Z,10.35
2023-04-09T14:02:26.155Z,9.82
2023-04-09T14:03:27.942Z,10.15
2023-04-09T14:04:29.723Z,10.90
2023-04-09T14:05:32.718Z,10.55
2023-04-09T14:06:34.283Z,10.10
2023-04-09T14:07:35.956Z,10.00
2023-04-09T14:08:37.507Z,11.60
2023-04-09T14:09:39.143Z,10.93
2023-04-09T14:10:40.786Z,9.65
2023-04-09T14:11:42.463Z,9.65